sensor_id;sensor_type;location;lat;lon;timestamp;temperature;humidity
12166;DHT22;6146;48.128;11.476;2024-01-27T00:02:18;2.30;99.90
12166;DHT22;6146;48.128;11.476;2024-01-27T00:04:43;2.30;99.90
12166;DHT22;6146;48.128;11.476;2024-01-27T00:07:09;2.20;99.90
12166;DHT22;6146;48.128;11.476;2024-01-27T00:09:34;2.30;99.90
12166;DHT22;6146;48.128;11.476;2024-01-27T00:12:00;2.20;99.90
12166;DHT22;6146;48.128;11.476;2024-01-27T00:14:26;2.30;99.90
12166;DHT22;6146;48.128;11.476;2024-01-27T00:16:52;2.30;99.90
12166;DHT22;6146;48.128;11.476;2024-01-27T00:19:17;2.30;99.90
12166;DHT22;6146;48.128;11.476;2024-01-27T00:21:43;2.30;99.90
12166;DHT22;6146;48.128;11.476;2024-01-27T00:24:09;2.20;99.90
12166;DHT22;6146;48.128;11.476;2024-01-27T00:26:34;2.20;99.90
12166;DHT22;6146;48.128;11.476;2024-01-27T00:29:00;2.20;99.90
12166;DHT22;6146;48.128;11.476;2024-01-27T00:31:25;2.10;99.90
12166;DHT22;6146;48.128;11.476;2024-01-27T00:33:51;2.10;99.90
12166;DHT22;6146;48.128;11.476;2024-01-27T00:36:16;2.10;99.90
12166;DHT22;6146;48.128;11.476;2024-01-27T00:38:43;2.10;99.90
12166;DHT22;6146;48.128;11.476;2024-01-27T00:41:08;2.00;99.90
12166;DHT22;6146;48.128;11.476;2024-01-27T00:43:38;2.00;99.90
12166;DHT22;6146;48.128;11.476;2024-01-27T00:46:03;2.00;99.90
12166;DHT22;6146;48.128;11.476;2024-01-27T00:48:29;2.00;99.90
12166;DHT22;6146;48.128;11.476;2024-01-27T00:50:54;2.00;99.90
12166;DHT22;6146;48.128;11.476;2024-01-27T00:53:20;2.00;99.90
12166;DHT22;6146;48.128;11.476;2024-01-27T00:55:45;1.90;99.90
12166;DHT22;6146;48.128;11.476;2024-01-27T00:58:11;1.90;99.90
12166;DHT22;6146;48.128;11.476;2024-01-27T01:00:36;1.90;99.90
12166;DHT22;6146;48.128;11.476;2024-01-27T01:03:02;1.90;99.90
12166;DHT22;6146;48.128;11.476;2024-01-27T01:05:28;1.90;99.90
12166;DHT22;6146;48.128;11.476;2024-01-27T01:07:53;1.90;99.90
12166;DHT22;6146;48.128;11.476;2024-01-27T01:10:19;1.90;99.90
12166;DHT22;6146;48.128;11.476;2024-01-27T01:12:45;1.90;99.90
12166;DHT22;6146;48.128;11.476;2024-01-27T01:15:11;1.90;99.90
12166;DHT22;6146;48.128;11.476;2024-01-27T01:17:36;1.90;99.90
12166;DHT22;6146;48.128;11.476;2024-01-27T01:20:02;1.80;99.90
12166;DHT22;6146;48.128;11.476;2024-01-27T01:22:27;1.80;99.90
12166;DHT22;6146;48.128;11.476;2024-01-27T01:24:53;1.80;99.90
12166;DHT22;6146;48.128;11.476;2024-01-27T01:27:19;1.70;99.90
12166;DHT22;6146;48.128;11.476;2024-01-27T01:29:46;1.70;99.90
12166;DHT22;6146;48.128;11.476;2024-01-27T01:32:12;1.70;99.90
12166;DHT22;6146;48.128;11.476;2024-01-27T01:34:37;1.70;99.90
12166;DHT22;6146;48.128;11.476;2024-01-27T01:37:03;1.80;99.90
12166;DHT22;6146;48.128;11.476;2024-01-27T01:39:28;1.70;99.90
12166;DHT22;6146;48.128;11.476;2024-01-27T01:41:54;1.80;99.90
12166;DHT22;6146;48.128;11.476;2024-01-27T01:44:20;1.90;99.90
12166;DHT22;6146;48.128;11.476;2024-01-27T01:46:46;1.90;99.90
12166;DHT22;6146;48.128;11.476;2024-01-27T01:49:12;2.00;99.90
12166;DHT22;6146;48.128;11.476;2024-01-27T01:51:38;2.00;99.90
12166;DHT22;6146;48.128;11.476;2024-01-27T01:54:04;2.10;99.90
12166;DHT22;6146;48.128;11.476;2024-01-27T01:56:30;2.00;99.90
12166;DHT22;6146;48.128;11.476;2024-01-27T01:58:56;2.10;99.90
12166;DHT22;6146;48.128;11.476;2024-01-27T02:01:21;2.10;99.90
12166;DHT22;6146;48.128;11.476;2024-01-27T02:03:59;2.10;99.90
12166;DHT22;6146;48.128;11.476;2024-01-27T02:06:24;2.10;99.90
12166;DHT22;6146;48.128;11.476;2024-01-27T02:08:50;2.10;99.90
12166;DHT22;6146;48.128;11.476;2024-01-27T02:11:16;2.00;99.90
12166;DHT22;6146;48.128;11.476;2024-01-27T02:13:42;2.00;99.90
12166;DHT22;6146;48.128;11.476;2024-01-27T02:16:08;2.00;99.90
12166;DHT22;6146;48.128;11.476;2024-01-27T02:18:34;2.00;99.90
12166;DHT22;6146;48.128;11.476;2024-01-27T02:21:00;2.00;99.90
12166;DHT22;6146;48.128;11.476;2024-01-27T02:23:25;1.90;99.90
12166;DHT22;6146;48.128;11.476;2024-01-27T02:25:51;1.90;99.90
12166;DHT22;6146;48.128;11.476;2024-01-27T02:28:17;1.90;99.90
12166;DHT22;6146;48.128;11.476;2024-01-27T02:30:43;1.90;99.90
12166;DHT22;6146;48.128;11.476;2024-01-27T02:33:09;1.90;99.90
12166;DHT22;6146;48.128;11.476;2024-01-27T02:35:34;1.90;99.90
12166;DHT22;6146;48.128;11.476;2024-01-27T02:38:00;1.90;99.90
12166;DHT22;6146;48.128;11.476;2024-01-27T02:40:26;1.90;99.90
12166;DHT22;6146;48.128;11.476;2024-01-27T02:42:52;1.90;99.90
12166;DHT22;6146;48.128;11.476;2024-01-27T02:45:17;1.80;99.90
12166;DHT22;6146;48.128;11.476;2024-01-27T02:47:43;1.90;99.90
12166;DHT22;6146;48.128;11.476;2024-01-27T02:50:08;1.80;99.90
12166;DHT22;6146;48.128;11.476;2024-01-27T02:52:34;1.80;99.90
12166;DHT22;6146;48.128;11.476;2024-01-27T02:55:00;1.80;99.90
12166;DHT22;6146;48.128;11.476;2024-01-27T02:57:26;1.90;99.90
12166;DHT22;6146;48.128;11.476;2024-01-27T02:59:51;1.80;99.90
12166;DHT22;6146;48.128;11.476;2024-01-27T03:02:17;1.80;99.90
12166;DHT22;6146;48.128;11.476;2024-01-27T03:04:42;1.90;99.90
12166;DHT22;6146;48.128;11.476;2024-01-27T03:07:08;1.80;99.90
12166;DHT22;6146;48.128;11.476;2024-01-27T03:09:33;1.80;99.90
12166;DHT22;6146;48.128;11.476;2024-01-27T03:11:59;1.80;99.90
12166;DHT22;6146;48.128;11.476;2024-01-27T03:14:25;1.80;99.90
12166;DHT22;6146;48.128;11.476;2024-01-27T03:16:51;1.80;99.90
12166;DHT22;6146;48.128;11.476;2024-01-27T03:19:16;1.70;99.90
12166;DHT22;6146;48.128;11.476;2024-01-27T03:21:42;1.70;99.90
12166;DHT22;6146;48.128;11.476;2024-01-27T03:24:07;1.70;99.90
12166;DHT22;6146;48.128;11.476;2024-01-27T03:26:33;1.70;99.90
12166;DHT22;6146;48.128;11.476;2024-01-27T03:28:59;1.60;99.90
12166;DHT22;6146;48.128;11.476;2024-01-27T03:31:34;1.60;99.90
12166;DHT22;6146;48.128;11.476;2024-01-27T03:34:01;1.60;99.90
12166;DHT22;6146;48.128;11.476;2024-01-27T03:36:27;1.60;99.90
12166;DHT22;6146;48.128;11.476;2024-01-27T03:38:52;1.60;99.90
12166;DHT22;6146;48.128;11.476;2024-01-27T03:41:18;1.60;99.90
12166;DHT22;6146;48.128;11.476;2024-01-27T03:43:43;1.50;99.90
12166;DHT22;6146;48.128;11.476;2024-01-27T03:46:09;1.50;99.90
12166;DHT22;6146;48.128;11.476;2024-01-27T03:48:34;1.50;99.90
12166;DHT22;6146;48.128;11.476;2024-01-27T03:51:01;1.50;99.90
12166;DHT22;6146;48.128;11.476;2024-01-27T03:53:27;1.40;99.90
12166;DHT22;6146;48.128;11.476;2024-01-27T03:55:53;1.40;99.90
12166;DHT22;6146;48.128;11.476;2024-01-27T03:58:18;1.40;99.90
12166;DHT22;6146;48.128;11.476;2024-01-27T04:00:44;1.40;99.90
12166;DHT22;6146;48.128;11.476;2024-01-27T04:03:10;1.40;99.90
12166;DHT22;6146;48.128;11.476;2024-01-27T04:05:35;1.40;99.90
12166;DHT22;6146;48.128;11.476;2024-01-27T04:08:01;1.40;99.90
12166;DHT22;6146;48.128;11.476;2024-01-27T04:10:27;1.40;99.90
12166;DHT22;6146;48.128;11.476;2024-01-27T04:12:53;1.40;99.90
12166;DHT22;6146;48.128;11.476;2024-01-27T04:15:18;1.40;99.90
12166;DHT22;6146;48.128;11.476;2024-01-27T04:17:44;1.40;99.90
12166;DHT22;6146;48.128;11.476;2024-01-27T04:20:10;1.40;99.90
12166;DHT22;6146;48.128;11.476;2024-01-27T04:22:36;1.40;99.90
12166;DHT22;6146;48.128;11.476;2024-01-27T04:25:01;1.40;99.90
12166;DHT22;6146;48.128;11.476;2024-01-27T04:27:28;1.30;99.90
12166;DHT22;6146;48.128;11.476;2024-01-27T04:29:53;1.30;99.90
12166;DHT22;6146;48.128;11.476;2024-01-27T04:32:19;1.30;99.90
12166;DHT22;6146;48.128;11.476;2024-01-27T04:34:46;1.30;99.90
12166;DHT22;6146;48.128;11.476;2024-01-27T04:37:12;1.30;99.90
12166;DHT22;6146;48.128;11.476;2024-01-27T04:39:38;1.20;99.90
12166;DHT22;6146;48.128;11.476;2024-01-27T04:42:04;1.30;99.90
12166;DHT22;6146;48.128;11.476;2024-01-27T04:44:31;1.30;99.90
12166;DHT22;6146;48.128;11.476;2024-01-27T04:46:57;1.20;99.90
12166;DHT22;6146;48.128;11.476;2024-01-27T04:49:23;1.30;99.90
12166;DHT22;6146;48.128;11.476;2024-01-27T04:51:48;1.20;99.90
12166;DHT22;6146;48.128;11.476;2024-01-27T04:54:14;1.20;99.90
12166;DHT22;6146;48.128;11.476;2024-01-27T04:56:39;1.20;99.90
12166;DHT22;6146;48.128;11.476;2024-01-27T04:59:05;1.20;99.90
12166;DHT22;6146;48.128;11.476;2024-01-27T05:01:31;1.20;99.90
12166;DHT22;6146;48.128;11.476;2024-01-27T05:03:57;1.20;99.90
12166;DHT22;6146;48.128;11.476;2024-01-27T05:06:22;1.20;99.90
12166;DHT22;6146;48.128;11.476;2024-01-27T05:08:48;1.20;99.90
12166;DHT22;6146;48.128;11.476;2024-01-27T05:11:13;1.20;99.90
12166;DHT22;6146;48.128;11.476;2024-01-27T05:13:40;1.10;99.90
12166;DHT22;6146;48.128;11.476;2024-01-27T05:16:06;1.10;99.90
12166;DHT22;6146;48.128;11.476;2024-01-27T05:18:31;1.10;99.90
12166;DHT22;6146;48.128;11.476;2024-01-27T05:20:57;1.10;99.90
12166;DHT22;6146;48.128;11.476;2024-01-27T05:23:22;1.00;99.90
12166;DHT22;6146;48.128;11.476;2024-01-27T05:25:49;1.00;99.90
12166;DHT22;6146;48.128;11.476;2024-01-27T05:28:14;1.00;99.90
12166;DHT22;6146;48.128;11.476;2024-01-27T05:30:40;1.00;99.90
12166;DHT22;6146;48.128;11.476;2024-01-27T05:33:05;0.90;99.90
12166;DHT22;6146;48.128;11.476;2024-01-27T05:35:31;0.80;99.90
12166;DHT22;6146;48.128;11.476;2024-01-27T05:37:56;0.80;99.90
12166;DHT22;6146;48.128;11.476;2024-01-27T05:40:22;0.70;99.90
12166;DHT22;6146;48.128;11.476;2024-01-27T05:42:48;0.70;99.90
12166;DHT22;6146;48.128;11.476;2024-01-27T05:45:15;0.70;99.90
12166;DHT22;6146;48.128;11.476;2024-01-27T05:47:40;0.70;99.90
12166;DHT22;6146;48.128;11.476;2024-01-27T05:50:06;0.70;99.90
12166;DHT22;6146;48.128;11.476;2024-01-27T05:52:34;0.70;99.90
12166;DHT22;6146;48.128;11.476;2024-01-27T05:55:01;0.70;99.90
12166;DHT22;6146;48.128;11.476;2024-01-27T05:57:26;0.60;99.90
12166;DHT22;6146;48.128;11.476;2024-01-27T05:59:52;0.60;99.90
12166;DHT22;6146;48.128;11.476;2024-01-27T06:02:17;0.60;99.90
12166;DHT22;6146;48.128;11.476;2024-01-27T06:04:43;0.60;99.90
12166;DHT22;6146;48.128;11.476;2024-01-27T06:07:09;0.60;99.90
12166;DHT22;6146;48.128;11.476;2024-01-27T06:09:36;0.70;99.90
12166;DHT22;6146;48.128;11.476;2024-01-27T06:12:02;0.60;99.90
12166;DHT22;6146;48.128;11.476;2024-01-27T06:14:28;0.60;99.90
12166;DHT22;6146;48.128;11.476;2024-01-27T06:16:53;0.60;99.90
12166;DHT22;6146;48.128;11.476;2024-01-27T06:19:19;0.60;99.90
12166;DHT22;6146;48.128;11.476;2024-01-27T06:21:44;0.60;99.90
12166;DHT22;6146;48.128;11.476;2024-01-27T06:24:10;0.60;99.90
12166;DHT22;6146;48.128;11.476;2024-01-27T06:26:35;0.60;99.90
12166;DHT22;6146;48.128;11.476;2024-01-27T06:29:01;0.60;99.90
12166;DHT22;6146;48.128;11.476;2024-01-27T06:31:27;0.60;99.90
12166;DHT22;6146;48.128;11.476;2024-01-27T06:33:53;0.60;99.90
12166;DHT22;6146;48.128;11.476;2024-01-27T06:36:19;0.60;99.90
12166;DHT22;6146;48.128;11.476;2024-01-27T06:38:44;0.70;99.90
12166;DHT22;6146;48.128;11.476;2024-01-27T06:41:10;0.70;99.90
12166;DHT22;6146;48.128;11.476;2024-01-27T06:43:36;0.70;99.90
12166;DHT22;6146;48.128;11.476;2024-01-27T06:46:01;0.70;99.90
12166;DHT22;6146;48.128;11.476;2024-01-27T06:48:27;0.70;99.90
12166;DHT22;6146;48.128;11.476;2024-01-27T06:50:52;0.70;99.90
12166;DHT22;6146;48.128;11.476;2024-01-27T06:53:18;0.70;99.90
12166;DHT22;6146;48.128;11.476;2024-01-27T06:55:45;0.70;99.90
12166;DHT22;6146;48.128;11.476;2024-01-27T06:58:10;0.70;99.90
12166;DHT22;6146;48.128;11.476;2024-01-27T07:00:36;0.70;99.90
12166;DHT22;6146;48.128;11.476;2024-01-27T07:03:01;0.70;99.90
12166;DHT22;6146;48.128;11.476;2024-01-27T07:05:28;0.80;99.90
12166;DHT22;6146;48.128;11.476;2024-01-27T07:07:53;0.80;99.90
12166;DHT22;6146;48.128;11.476;2024-01-27T07:10:19;0.80;99.90
12166;DHT22;6146;48.128;11.476;2024-01-27T07:12:44;0.80;99.90
12166;DHT22;6146;48.128;11.476;2024-01-27T07:15:10;0.80;99.90
12166;DHT22;6146;48.128;11.476;2024-01-27T07:17:36;0.90;99.90
12166;DHT22;6146;48.128;11.476;2024-01-27T07:20:01;0.90;99.90
12166;DHT22;6146;48.128;11.476;2024-01-27T07:22:27;1.00;99.90
12166;DHT22;6146;48.128;11.476;2024-01-27T07:24:52;1.00;99.90
12166;DHT22;6146;48.128;11.476;2024-01-27T07:27:18;1.00;99.90
12166;DHT22;6146;48.128;11.476;2024-01-27T07:29:44;1.10;99.90
12166;DHT22;6146;48.128;11.476;2024-01-27T07:32:10;1.10;99.90
12166;DHT22;6146;48.128;11.476;2024-01-27T07:34:44;1.20;99.90
12166;DHT22;6146;48.128;11.476;2024-01-27T07:37:10;1.30;99.90
12166;DHT22;6146;48.128;11.476;2024-01-27T07:39:36;1.40;99.90
12166;DHT22;6146;48.128;11.476;2024-01-27T07:42:01;1.60;99.90
12166;DHT22;6146;48.128;11.476;2024-01-27T07:44:27;2.50;99.90
12166;DHT22;6146;48.128;11.476;2024-01-27T07:46:53;4.00;99.90
12166;DHT22;6146;48.128;11.476;2024-01-27T07:49:18;5.70;99.90
12166;DHT22;6146;48.128;11.476;2024-01-27T07:51:44;7.50;99.90
12166;DHT22;6146;48.128;11.476;2024-01-27T07:54:10;9.00;99.90
12166;DHT22;6146;48.128;11.476;2024-01-27T07:56:37;10.40;99.90
12166;DHT22;6146;48.128;11.476;2024-01-27T07:59:03;11.50;99.90
12166;DHT22;6146;48.128;11.476;2024-01-27T08:01:29;12.60;99.90
12166;DHT22;6146;48.128;11.476;2024-01-27T08:03:54;14.00;99.90
12166;DHT22;6146;48.128;11.476;2024-01-27T08:06:28;14.20;99.90
12166;DHT22;6146;48.128;11.476;2024-01-27T08:08:54;14.70;98.80
12166;DHT22;6146;48.128;11.476;2024-01-27T08:11:20;15.20;97.10
12166;DHT22;6146;48.128;11.476;2024-01-27T08:13:46;15.70;95.50
12166;DHT22;6146;48.128;11.476;2024-01-27T08:16:11;16.10;93.30
12166;DHT22;6146;48.128;11.476;2024-01-27T08:18:41;16.10;91.70
12166;DHT22;6146;48.128;11.476;2024-01-27T08:21:10;16.70;90.30
12166;DHT22;6146;48.128;11.476;2024-01-27T08:23:35;17.40;88.90
12166;DHT22;6146;48.128;11.476;2024-01-27T08:26:01;17.90;82.90
12166;DHT22;6146;48.128;11.476;2024-01-27T08:28:27;17.60;81.60
12166;DHT22;6146;48.128;11.476;2024-01-27T08:30:53;17.80;81.90
12166;DHT22;6146;48.128;11.476;2024-01-27T08:33:18;17.90;78.00
12166;DHT22;6146;48.128;11.476;2024-01-27T08:35:46;18.10;77.30
12166;DHT22;6146;48.128;11.476;2024-01-27T08:38:12;18.00;77.40
12166;DHT22;6146;48.128;11.476;2024-01-27T08:40:37;18.10;78.60
12166;DHT22;6146;48.128;11.476;2024-01-27T08:43:03;18.30;77.20
12166;DHT22;6146;48.128;11.476;2024-01-27T08:45:29;18.60;74.10
12166;DHT22;6146;48.128;11.476;2024-01-27T08:47:54;18.90;71.90
12166;DHT22;6146;48.128;11.476;2024-01-27T08:50:21;19.00;71.40
12166;DHT22;6146;48.128;11.476;2024-01-27T08:52:46;18.20;72.10
12166;DHT22;6146;48.128;11.476;2024-01-27T08:55:12;18.30;73.50
12166;DHT22;6146;48.128;11.476;2024-01-27T08:57:37;18.20;71.80
12166;DHT22;6146;48.128;11.476;2024-01-27T09:00:04;18.70;70.70
12166;DHT22;6146;48.128;11.476;2024-01-27T09:02:29;18.80;70.90
12166;DHT22;6146;48.128;11.476;2024-01-27T09:04:55;19.00;69.80
12166;DHT22;6146;48.128;11.476;2024-01-27T09:07:21;19.30;67.90
12166;DHT22;6146;48.128;11.476;2024-01-27T09:09:47;19.00;69.00
12166;DHT22;6146;48.128;11.476;2024-01-27T09:12:12;18.40;68.10
12166;DHT22;6146;48.128;11.476;2024-01-27T09:14:38;17.10;71.70
12166;DHT22;6146;48.128;11.476;2024-01-27T09:17:03;16.30;75.60
12166;DHT22;6146;48.128;11.476;2024-01-27T09:19:29;16.60;75.90
12166;DHT22;6146;48.128;11.476;2024-01-27T09:21:54;17.10;76.50
12166;DHT22;6146;48.128;11.476;2024-01-27T09:24:20;17.40;73.10
12166;DHT22;6146;48.128;11.476;2024-01-27T09:26:45;17.90;72.90
12166;DHT22;6146;48.128;11.476;2024-01-27T09:29:11;17.60;73.70
12166;DHT22;6146;48.128;11.476;2024-01-27T09:31:37;16.90;77.30
12166;DHT22;6146;48.128;11.476;2024-01-27T09:34:02;17.50;73.60
12166;DHT22;6146;48.128;11.476;2024-01-27T09:36:28;17.80;71.20
12166;DHT22;6146;48.128;11.476;2024-01-27T09:38:54;17.40;70.40
12166;DHT22;6146;48.128;11.476;2024-01-27T09:41:20;17.40;72.40
12166;DHT22;6146;48.128;11.476;2024-01-27T09:43:46;16.60;75.60
12166;DHT22;6146;48.128;11.476;2024-01-27T09:46:13;17.30;74.80
12166;DHT22;6146;48.128;11.476;2024-01-27T09:48:39;18.10;72.00
12166;DHT22;6146;48.128;11.476;2024-01-27T09:51:07;18.90;69.20
12166;DHT22;6146;48.128;11.476;2024-01-27T09:53:33;18.20;69.00
12166;DHT22;6146;48.128;11.476;2024-01-27T09:55:59;18.70;69.00
12166;DHT22;6146;48.128;11.476;2024-01-27T09:58:28;19.40;64.90
12166;DHT22;6146;48.128;11.476;2024-01-27T10:00:56;19.80;63.80
12166;DHT22;6146;48.128;11.476;2024-01-27T10:03:27;19.80;62.10
12166;DHT22;6146;48.128;11.476;2024-01-27T10:05:55;19.30;64.60
12166;DHT22;6146;48.128;11.476;2024-01-27T10:08:24;19.80;63.00
12166;DHT22;6146;48.128;11.476;2024-01-27T10:10:54;19.90;63.10
12166;DHT22;6146;48.128;11.476;2024-01-27T10:13:21;19.20;63.00
12166;DHT22;6146;48.128;11.476;2024-01-27T10:16:06;19.90;58.80
12166;DHT22;6146;48.128;11.476;2024-01-27T10:18:33;19.80;59.60
12166;DHT22;6146;48.128;11.476;2024-01-27T10:20:59;18.70;63.10
12166;DHT22;6146;48.128;11.476;2024-01-27T10:23:25;18.90;63.10
12166;DHT22;6146;48.128;11.476;2024-01-27T10:25:51;18.80;62.00
12166;DHT22;6146;48.128;11.476;2024-01-27T10:28:17;18.70;63.60
12166;DHT22;6146;48.128;11.476;2024-01-27T10:30:43;18.80;61.90
12166;DHT22;6146;48.128;11.476;2024-01-27T10:33:09;20.00;59.30
12166;DHT22;6146;48.128;11.476;2024-01-27T10:35:42;21.20;58.10
12166;DHT22;6146;48.128;11.476;2024-01-27T10:38:08;21.10;56.00
12166;DHT22;6146;48.128;11.476;2024-01-27T10:40:35;21.60;56.00
12166;DHT22;6146;48.128;11.476;2024-01-27T10:43:04;21.70;55.50
12166;DHT22;6146;48.128;11.476;2024-01-27T10:45:35;22.30;53.20
12166;DHT22;6146;48.128;11.476;2024-01-27T10:48:02;21.10;53.60
12166;DHT22;6146;48.128;11.476;2024-01-27T10:50:28;20.90;55.40
12166;DHT22;6146;48.128;11.476;2024-01-27T10:52:57;21.40;55.50
12166;DHT22;6146;48.128;11.476;2024-01-27T10:55:24;21.30;55.90
12166;DHT22;6146;48.128;11.476;2024-01-27T10:57:52;21.80;53.80
12166;DHT22;6146;48.128;11.476;2024-01-27T11:00:19;22.60;51.90
12166;DHT22;6146;48.128;11.476;2024-01-27T11:02:45;23.60;50.50
12166;DHT22;6146;48.128;11.476;2024-01-27T11:05:10;23.60;50.20
12166;DHT22;6146;48.128;11.476;2024-01-27T11:07:38;23.30;50.00
12166;DHT22;6146;48.128;11.476;2024-01-27T11:10:05;22.60;50.00
12166;DHT22;6146;48.128;11.476;2024-01-27T11:12:31;22.40;50.70
12166;DHT22;6146;48.128;11.476;2024-01-27T11:14:56;22.20;50.10
12166;DHT22;6146;48.128;11.476;2024-01-27T11:17:24;22.40;50.40
12166;DHT22;6146;48.128;11.476;2024-01-27T11:19:49;23.20;48.70
12166;DHT22;6146;48.128;11.476;2024-01-27T11:22:26;22.80;48.40
12166;DHT22;6146;48.128;11.476;2024-01-27T11:25:06;22.00;50.10
12166;DHT22;6146;48.128;11.476;2024-01-27T11:27:32;21.50;49.90
12166;DHT22;6146;48.128;11.476;2024-01-27T11:29:57;21.90;50.60
12166;DHT22;6146;48.128;11.476;2024-01-27T11:32:23;22.20;48.60
12166;DHT22;6146;48.128;11.476;2024-01-27T11:34:49;21.90;49.30
12166;DHT22;6146;48.128;11.476;2024-01-27T11:37:16;21.30;49.10
12166;DHT22;6146;48.128;11.476;2024-01-27T11:39:42;20.40;50.60
12166;DHT22;6146;48.128;11.476;2024-01-27T11:42:10;20.60;50.70
12166;DHT22;6146;48.128;11.476;2024-01-27T11:44:40;22.30;48.10
12166;DHT22;6146;48.128;11.476;2024-01-27T11:47:17;22.80;46.90
12166;DHT22;6146;48.128;11.476;2024-01-27T11:49:53;22.70;47.70
12166;DHT22;6146;48.128;11.476;2024-01-27T11:52:20;22.90;48.30
12166;DHT22;6146;48.128;11.476;2024-01-27T11:54:46;22.90;47.20
12166;DHT22;6146;48.128;11.476;2024-01-27T11:57:11;23.20;45.70
12166;DHT22;6146;48.128;11.476;2024-01-27T11:59:37;24.40;43.40
12166;DHT22;6146;48.128;11.476;2024-01-27T12:02:03;24.30;42.10
12166;DHT22;6146;48.128;11.476;2024-01-27T12:04:29;23.70;43.10
12166;DHT22;6146;48.128;11.476;2024-01-27T12:06:54;24.90;43.40
12166;DHT22;6146;48.128;11.476;2024-01-27T12:09:20;25.00;42.30
12166;DHT22;6146;48.128;11.476;2024-01-27T12:11:46;24.50;42.90
12166;DHT22;6146;48.128;11.476;2024-01-27T12:14:11;24.30;42.90
12166;DHT22;6146;48.128;11.476;2024-01-27T12:16:38;24.10;43.00
12166;DHT22;6146;48.128;11.476;2024-01-27T12:19:03;23.60;42.40
12166;DHT22;6146;48.128;11.476;2024-01-27T12:21:29;23.90;42.30
12166;DHT22;6146;48.128;11.476;2024-01-27T12:23:58;24.50;42.40
12166;DHT22;6146;48.128;11.476;2024-01-27T12:26:30;24.70;41.80
12166;DHT22;6146;48.128;11.476;2024-01-27T12:28:57;24.30;41.70
12166;DHT22;6146;48.128;11.476;2024-01-27T12:31:26;23.00;43.70
12166;DHT22;6146;48.128;11.476;2024-01-27T12:33:56;22.10;44.90
12166;DHT22;6146;48.128;11.476;2024-01-27T12:36:24;22.30;43.30
12166;DHT22;6146;48.128;11.476;2024-01-27T12:39:02;22.80;42.40
12166;DHT22;6146;48.128;11.476;2024-01-27T12:41:31;23.90;41.60
12166;DHT22;6146;48.128;11.476;2024-01-27T12:43:59;23.70;41.70
12166;DHT22;6146;48.128;11.476;2024-01-27T12:46:24;23.50;41.60
12166;DHT22;6146;48.128;11.476;2024-01-27T12:48:50;22.90;42.60
12166;DHT22;6146;48.128;11.476;2024-01-27T12:51:16;23.20;42.70
12166;DHT22;6146;48.128;11.476;2024-01-27T12:53:42;24.40;40.20
12166;DHT22;6146;48.128;11.476;2024-01-27T12:56:12;25.30;38.30
12166;DHT22;6146;48.128;11.476;2024-01-27T12:58:39;26.00;38.30
12166;DHT22;6146;48.128;11.476;2024-01-27T13:01:05;26.20;38.00
12166;DHT22;6146;48.128;11.476;2024-01-27T13:03:31;26.50;37.80
12166;DHT22;6146;48.128;11.476;2024-01-27T13:05:57;25.80;36.40
12166;DHT22;6146;48.128;11.476;2024-01-27T13:08:23;25.80;37.90
12166;DHT22;6146;48.128;11.476;2024-01-27T13:10:49;25.70;37.00
12166;DHT22;6146;48.128;11.476;2024-01-27T13:13:15;26.20;36.70
12166;DHT22;6146;48.128;11.476;2024-01-27T13:15:40;26.40;36.40
12166;DHT22;6146;48.128;11.476;2024-01-27T13:18:06;26.30;36.70
12166;DHT22;6146;48.128;11.476;2024-01-27T13:20:32;25.70;36.40
12166;DHT22;6146;48.128;11.476;2024-01-27T13:22:58;25.70;36.90
12166;DHT22;6146;48.128;11.476;2024-01-27T13:25:24;25.20;36.20
12166;DHT22;6146;48.128;11.476;2024-01-27T13:27:50;24.20;37.90
12166;DHT22;6146;48.128;11.476;2024-01-27T13:30:15;24.40;38.00
12166;DHT22;6146;48.128;11.476;2024-01-27T13:32:43;25.10;36.70
12166;DHT22;6146;48.128;11.476;2024-01-27T13:35:09;25.20;36.60
12166;DHT22;6146;48.128;11.476;2024-01-27T13:37:34;25.40;37.00
12166;DHT22;6146;48.128;11.476;2024-01-27T13:40:01;25.60;35.80
12166;DHT22;6146;48.128;11.476;2024-01-27T13:42:26;25.10;36.40
12166;DHT22;6146;48.128;11.476;2024-01-27T13:44:52;25.10;36.70
12166;DHT22;6146;48.128;11.476;2024-01-27T13:47:18;25.40;35.80
12166;DHT22;6146;48.128;11.476;2024-01-27T13:49:44;24.60;37.40
12166;DHT22;6146;48.128;11.476;2024-01-27T13:52:10;24.60;38.00
12166;DHT22;6146;48.128;11.476;2024-01-27T13:54:37;24.20;36.70
12166;DHT22;6146;48.128;11.476;2024-01-27T13:57:03;24.20;37.50
12166;DHT22;6146;48.128;11.476;2024-01-27T13:59:28;24.30;37.30
12166;DHT22;6146;48.128;11.476;2024-01-27T14:01:54;24.30;37.70
12166;DHT22;6146;48.128;11.476;2024-01-27T14:04:22;24.20;36.60
12166;DHT22;6146;48.128;11.476;2024-01-27T14:06:48;24.00;38.00
12166;DHT22;6146;48.128;11.476;2024-01-27T14:09:14;24.10;38.10
12166;DHT22;6146;48.128;11.476;2024-01-27T14:11:39;23.90;38.60
12166;DHT22;6146;48.128;11.476;2024-01-27T14:14:05;23.60;37.00
12166;DHT22;6146;48.128;11.476;2024-01-27T14:16:31;23.40;38.40
12166;DHT22;6146;48.128;11.476;2024-01-27T14:18:57;23.00;39.30
12166;DHT22;6146;48.128;11.476;2024-01-27T14:21:22;22.30;39.20
12166;DHT22;6146;48.128;11.476;2024-01-27T14:23:49;20.50;40.90
12166;DHT22;6146;48.128;11.476;2024-01-27T14:26:14;20.50;40.80
12166;DHT22;6146;48.128;11.476;2024-01-27T14:28:41;19.90;41.90
12166;DHT22;6146;48.128;11.476;2024-01-27T14:31:07;18.80;43.90
12166;DHT22;6146;48.128;11.476;2024-01-27T14:33:33;19.20;44.80
12166;DHT22;6146;48.128;11.476;2024-01-27T14:35:58;18.30;44.80
12166;DHT22;6146;48.128;11.476;2024-01-27T14:38:24;17.10;47.40
12166;DHT22;6146;48.128;11.476;2024-01-27T14:40:50;17.20;47.10
12166;DHT22;6146;48.128;11.476;2024-01-27T14:43:15;16.80;46.70
12166;DHT22;6146;48.128;11.476;2024-01-27T14:45:44;16.60;46.40
12166;DHT22;6146;48.128;11.476;2024-01-27T14:48:10;16.10;48.80
12166;DHT22;6146;48.128;11.476;2024-01-27T14:50:35;15.90;50.20
12166;DHT22;6146;48.128;11.476;2024-01-27T14:53:01;16.50;50.10
12166;DHT22;6146;48.128;11.476;2024-01-27T14:55:30;15.60;48.90
12166;DHT22;6146;48.128;11.476;2024-01-27T14:57:58;16.70;48.20
12166;DHT22;6146;48.128;11.476;2024-01-27T15:00:23;16.90;47.30
12166;DHT22;6146;48.128;11.476;2024-01-27T15:02:49;16.90;47.40
12166;DHT22;6146;48.128;11.476;2024-01-27T15:05:15;16.50;47.30
12166;DHT22;6146;48.128;11.476;2024-01-27T15:07:40;15.30;49.30
12166;DHT22;6146;48.128;11.476;2024-01-27T15:10:07;13.80;52.60
12166;DHT22;6146;48.128;11.476;2024-01-27T15:12:32;13.20;56.40
12166;DHT22;6146;48.128;11.476;2024-01-27T15:14:58;11.30;57.40
12166;DHT22;6146;48.128;11.476;2024-01-27T15:17:24;10.50;59.20
12166;DHT22;6146;48.128;11.476;2024-01-27T15:19:50;10.00;63.60
12166;DHT22;6146;48.128;11.476;2024-01-27T15:22:17;9.50;65.20
12166;DHT22;6146;48.128;11.476;2024-01-27T15:24:44;9.10;67.00
12166;DHT22;6146;48.128;11.476;2024-01-27T15:27:09;8.70;69.40
12166;DHT22;6146;48.128;11.476;2024-01-27T15:29:35;8.10;71.80
12166;DHT22;6146;48.128;11.476;2024-01-27T15:32:00;7.80;73.60
12166;DHT22;6146;48.128;11.476;2024-01-27T15:34:26;7.60;73.60